Flugplatz Taucha

Für EDCT sind keine METAR/TAF Berichte vorhanden.
Es werden die Flugwettermeldungen vom Flugplatz Leipzig Halle in 21 km Entfernung angezeigt.

Bericht für EDDP

vom 27.09. um 00:20 UTC

Wind 6 kt aus 150°

Sichtweite 10 km oder mehr

gering bewölkt in 3000 ft

Temperatur 6.0°C

Taupunkt 5.0°C

Luftfeuchtigkeit 93%

Luftdruck 998 hPa

keine wesentliche Wetteränderung innerhalb den nächsten 2 Stunden zu erwarten

EDDP 270020Z 15006KT 9999 FEW030 06/05 Q0998 NOSIG

Prognose für EDDP

vom 26.09. um 23:00 UTC

Zwischen 00:00 UTC und 00:00 UTC

Wind 9 kt aus 200°

Sichtweite 10 km oder mehr

aufgelockert bewölkt in 4000 ft

TAF EDDP 262300Z 2700/2724 20009KT 9999 SCT040
Impressum